sensor_id;sensor_type;location;lat;lon;timestamp;temperature;humidity
74368;DHT22;64991;41.090;-8.118;2023-07-13T00:00:26;25.00;65.10
74368;DHT22;64991;41.090;-8.118;2023-07-13T00:05:30;25.10;65.30
74368;DHT22;64991;41.090;-8.118;2023-07-13T00:10:35;25.10;65.20
74368;DHT22;64991;41.090;-8.118;2023-07-13T00:15:42;25.20;65.40
74368;DHT22;64991;41.090;-8.118;2023-07-13T00:21:04;25.20;65.60
74368;DHT22;64991;41.090;-8.118;2023-07-13T00:26:09;25.20;65.70
74368;DHT22;64991;41.090;-8.118;2023-07-13T00:31:14;25.20;65.80
74368;DHT22;64991;41.090;-8.118;2023-07-13T00:36:19;25.30;66.00
74368;DHT22;64991;41.090;-8.118;2023-07-13T00:41:42;25.30;66.10
74368;DHT22;64991;41.090;-8.118;2023-07-13T00:46:46;25.40;66.50
74368;DHT22;64991;41.090;-8.118;2023-07-13T00:51:50;25.30;66.70
74368;DHT22;64991;41.090;-8.118;2023-07-13T00:56:59;25.30;67.00
74368;DHT22;64991;41.090;-8.118;2023-07-13T01:02:04;25.30;67.10
74368;DHT22;64991;41.090;-8.118;2023-07-13T01:07:08;25.30;67.50
74368;DHT22;64991;41.090;-8.118;2023-07-13T01:12:30;25.30;67.70
74368;DHT22;64991;41.090;-8.118;2023-07-13T01:17:34;25.20;67.90
74368;DHT22;64991;41.090;-8.118;2023-07-13T01:22:39;25.30;67.90
74368;DHT22;64991;41.090;-8.118;2023-07-13T01:27:43;25.20;67.90
74368;DHT22;64991;41.090;-8.118;2023-07-13T01:32:47;25.20;68.10
74368;DHT22;64991;41.090;-8.118;2023-07-13T01:38:10;25.20;68.60
74368;DHT22;64991;41.090;-8.118;2023-07-13T01:43:14;25.30;68.60
74368;DHT22;64991;41.090;-8.118;2023-07-13T01:48:18;25.30;68.70
74368;DHT22;64991;41.090;-8.118;2023-07-13T01:53:24;25.20;68.90
74368;DHT22;64991;41.090;-8.118;2023-07-13T01:58:28;25.20;68.90
74368;DHT22;64991;41.090;-8.118;2023-07-13T02:03:32;25.30;69.30
74368;DHT22;64991;41.090;-8.118;2023-07-13T02:08:37;25.20;69.30
74368;DHT22;64991;41.090;-8.118;2023-07-13T02:13:41;25.30;69.50
74368;DHT22;64991;41.090;-8.118;2023-07-13T02:18:45;25.30;69.60
74368;DHT22;64991;41.090;-8.118;2023-07-13T02:23:50;25.30;69.80
74368;DHT22;64991;41.090;-8.118;2023-07-13T02:28:54;25.30;69.60
74368;DHT22;64991;41.090;-8.118;2023-07-13T02:33:58;25.20;70.10
74368;DHT22;64991;41.090;-8.118;2023-07-13T02:39:03;25.20;70.10
74368;DHT22;64991;41.090;-8.118;2023-07-13T02:44:08;25.20;70.50
74368;DHT22;64991;41.090;-8.118;2023-07-13T02:49:11;25.30;70.60
74368;DHT22;64991;41.090;-8.118;2023-07-13T02:54:17;25.20;70.50
74368;DHT22;64991;41.090;-8.118;2023-07-13T02:59:20;25.20;70.70
74368;DHT22;64991;41.090;-8.118;2023-07-13T03:04:24;25.20;71.00
74368;DHT22;64991;41.090;-8.118;2023-07-13T03:09:29;25.20;70.60
74368;DHT22;64991;41.090;-8.118;2023-07-13T03:14:34;25.20;71.00
74368;DHT22;64991;41.090;-8.118;2023-07-13T03:19:38;25.20;71.20
74368;DHT22;64991;41.090;-8.118;2023-07-13T03:24:43;25.20;71.20
74368;DHT22;64991;41.090;-8.118;2023-07-13T03:29:47;25.20;71.20
74368;DHT22;64991;41.090;-8.118;2023-07-13T03:34:50;25.20;71.40
74368;DHT22;64991;41.090;-8.118;2023-07-13T03:39:56;25.20;71.50
74368;DHT22;64991;41.090;-8.118;2023-07-13T03:45:00;25.20;71.60
74368;DHT22;64991;41.090;-8.118;2023-07-13T03:50:04;25.10;71.40
74368;DHT22;64991;41.090;-8.118;2023-07-13T03:55:10;25.20;71.60
74368;DHT22;64991;41.090;-8.118;2023-07-13T04:00:14;25.10;71.50
74368;DHT22;64991;41.090;-8.118;2023-07-13T04:05:19;25.20;71.50
74368;DHT22;64991;41.090;-8.118;2023-07-13T04:10:24;25.20;71.80
74368;DHT22;64991;41.090;-8.118;2023-07-13T04:15:29;25.10;71.70
74368;DHT22;64991;41.090;-8.118;2023-07-13T04:20:33;25.10;71.70
74368;DHT22;64991;41.090;-8.118;2023-07-13T04:25:38;25.20;71.70
74368;DHT22;64991;41.090;-8.118;2023-07-13T04:30:41;25.20;71.80
74368;DHT22;64991;41.090;-8.118;2023-07-13T04:35:45;25.20;71.80
74368;DHT22;64991;41.090;-8.118;2023-07-13T04:40:51;25.20;71.90
74368;DHT22;64991;41.090;-8.118;2023-07-13T04:45:54;25.10;72.00
74368;DHT22;64991;41.090;-8.118;2023-07-13T04:50:59;25.10;71.80
74368;DHT22;64991;41.090;-8.118;2023-07-13T04:56:05;25.10;72.00
74368;DHT22;64991;41.090;-8.118;2023-07-13T05:01:09;25.20;71.90
74368;DHT22;64991;41.090;-8.118;2023-07-13T05:06:13;25.10;72.00
74368;DHT22;64991;41.090;-8.118;2023-07-13T05:11:19;25.10;72.10
74368;DHT22;64991;41.090;-8.118;2023-07-13T05:16:22;25.00;72.10
74368;DHT22;64991;41.090;-8.118;2023-07-13T05:21:26;25.10;72.00
74368;DHT22;64991;41.090;-8.118;2023-07-13T05:26:31;25.10;72.20
74368;DHT22;64991;41.090;-8.118;2023-07-13T05:31:35;25.10;72.20
74368;DHT22;64991;41.090;-8.118;2023-07-13T05:36:42;25.10;72.20
74368;DHT22;64991;41.090;-8.118;2023-07-13T05:41:49;25.10;72.10
74368;DHT22;64991;41.090;-8.118;2023-07-13T05:46:52;25.10;71.70
74368;DHT22;64991;41.090;-8.118;2023-07-13T05:51:57;24.80;67.90
74368;DHT22;64991;41.090;-8.118;2023-07-13T05:57:02;24.40;67.10
74368;DHT22;64991;41.090;-8.118;2023-07-13T06:02:07;24.20;67.10
74368;DHT22;64991;41.090;-8.118;2023-07-13T06:07:12;24.00;66.30
74368;DHT22;64991;41.090;-8.118;2023-07-13T06:12:17;23.90;65.90
74368;DHT22;64991;41.090;-8.118;2023-07-13T06:17:20;24.00;65.70
74368;DHT22;64991;41.090;-8.118;2023-07-13T06:22:24;24.20;65.10
74368;DHT22;64991;41.090;-8.118;2023-07-13T06:27:29;24.20;64.40
74368;DHT22;64991;41.090;-8.118;2023-07-13T06:32:33;24.30;64.10
74368;DHT22;64991;41.090;-8.118;2023-07-13T06:37:41;24.30;63.60
74368;DHT22;64991;41.090;-8.118;2023-07-13T06:42:47;24.30;63.30
74368;DHT22;64991;41.090;-8.118;2023-07-13T06:47:50;24.30;63.10
74368;DHT22;64991;41.090;-8.118;2023-07-13T06:52:54;24.30;63.20
74368;DHT22;64991;41.090;-8.118;2023-07-13T06:57:59;24.30;63.20
74368;DHT22;64991;41.090;-8.118;2023-07-13T07:03:03;24.30;63.30
74368;DHT22;64991;41.090;-8.118;2023-07-13T07:08:07;24.40;63.50
74368;DHT22;64991;41.090;-8.118;2023-07-13T07:13:12;24.50;63.50
74368;DHT22;64991;41.090;-8.118;2023-07-13T07:18:16;24.50;63.60
74368;DHT22;64991;41.090;-8.118;2023-07-13T07:23:19;24.50;63.60
74368;DHT22;64991;41.090;-8.118;2023-07-13T07:28:25;24.50;63.70
74368;DHT22;64991;41.090;-8.118;2023-07-13T07:33:43;24.40;63.40
74368;DHT22;64991;41.090;-8.118;2023-07-13T07:38:48;24.40;63.30
74368;DHT22;64991;41.090;-8.118;2023-07-13T07:43:53;24.50;63.40
74368;DHT22;64991;41.090;-8.118;2023-07-13T07:48:57;24.50;63.60
74368;DHT22;64991;41.090;-8.118;2023-07-13T07:54:00;24.50;63.50
74368;DHT22;64991;41.090;-8.118;2023-07-13T07:59:06;24.50;63.30
74368;DHT22;64991;41.090;-8.118;2023-07-13T08:04:13;24.50;63.40
74368;DHT22;64991;41.090;-8.118;2023-07-13T08:09:37;24.60;63.40
74368;DHT22;64991;41.090;-8.118;2023-07-13T08:14:42;24.60;63.30
74368;DHT22;64991;41.090;-8.118;2023-07-13T08:19:54;24.60;63.50
74368;DHT22;64991;41.090;-8.118;2023-07-13T08:24:58;24.70;63.90
74368;DHT22;64991;41.090;-8.118;2023-07-13T08:30:05;24.70;64.20
74368;DHT22;64991;41.090;-8.118;2023-07-13T08:35:10;24.70;64.50
74368;DHT22;64991;41.090;-8.118;2023-07-13T08:40:15;24.70;64.60
74368;DHT22;64991;41.090;-8.118;2023-07-13T08:45:25;24.70;64.80
74368;DHT22;64991;41.090;-8.118;2023-07-13T08:50:35;24.80;64.70
74368;DHT22;64991;41.090;-8.118;2023-07-13T08:56:00;24.80;64.70
74368;DHT22;64991;41.090;-8.118;2023-07-13T09:01:10;24.80;64.40
74368;DHT22;64991;41.090;-8.118;2023-07-13T09:06:20;24.90;64.50
74368;DHT22;64991;41.090;-8.118;2023-07-13T09:11:29;24.90;64.30
74368;DHT22;64991;41.090;-8.118;2023-07-13T09:16:42;24.90;64.50
74368;DHT22;64991;41.090;-8.118;2023-07-13T09:21:46;24.90;64.10
74368;DHT22;64991;41.090;-8.118;2023-07-13T09:26:50;25.00;64.50
74368;DHT22;64991;41.090;-8.118;2023-07-13T09:31:57;24.90;64.40
74368;DHT22;64991;41.090;-8.118;2023-07-13T09:37:04;25.00;64.70
74368;DHT22;64991;41.090;-8.118;2023-07-13T09:42:25;25.00;64.50
74368;DHT22;64991;41.090;-8.118;2023-07-13T09:47:32;25.00;64.20
74368;DHT22;64991;41.090;-8.118;2023-07-13T09:57:47;25.10;64.10
74368;DHT22;64991;41.090;-8.118;2023-07-13T10:03:00;25.10;64.30
74368;DHT22;64991;41.090;-8.118;2023-07-13T10:08:06;25.10;64.30
74368;DHT22;64991;41.090;-8.118;2023-07-13T10:13:32;25.10;64.50
74368;DHT22;64991;41.090;-8.118;2023-07-13T10:18:41;25.10;64.50
74368;DHT22;64991;41.090;-8.118;2023-07-13T10:23:50;25.10;64.50
74368;DHT22;64991;41.090;-8.118;2023-07-13T10:28:56;25.20;64.60
74368;DHT22;64991;41.090;-8.118;2023-07-13T10:34:02;25.10;64.80
74368;DHT22;64991;41.090;-8.118;2023-07-13T10:39:08;25.20;64.90
74368;DHT22;64991;41.090;-8.118;2023-07-13T10:44:19;25.20;65.20
74368;DHT22;64991;41.090;-8.118;2023-07-13T10:49:31;25.20;65.40
74368;DHT22;64991;41.090;-8.118;2023-07-13T10:54:36;25.20;65.70
74368;DHT22;64991;41.090;-8.118;2023-07-13T10:59:40;25.20;65.80
74368;DHT22;64991;41.090;-8.118;2023-07-13T11:04:49;25.20;65.80
74368;DHT22;64991;41.090;-8.118;2023-07-13T11:09:53;25.20;65.90
74368;DHT22;64991;41.090;-8.118;2023-07-13T11:15:03;25.20;66.00
74368;DHT22;64991;41.090;-8.118;2023-07-13T11:20:19;25.20;65.80
74368;DHT22;64991;41.090;-8.118;2023-07-13T11:25:27;25.20;66.30
74368;DHT22;64991;41.090;-8.118;2023-07-13T11:30:35;25.20;66.60
74368;DHT22;64991;41.090;-8.118;2023-07-13T11:35:45;25.20;66.60
74368;DHT22;64991;41.090;-8.118;2023-07-13T11:40:53;25.30;66.70
74368;DHT22;64991;41.090;-8.118;2023-07-13T11:45:57;25.30;66.80
74368;DHT22;64991;41.090;-8.118;2023-07-13T11:51:03;25.30;66.90
74368;DHT22;64991;41.090;-8.118;2023-07-13T11:56:08;25.20;66.90
74368;DHT22;64991;41.090;-8.118;2023-07-13T12:01:15;25.30;67.10
74368;DHT22;64991;41.090;-8.118;2023-07-13T12:06:26;25.30;67.00
74368;DHT22;64991;41.090;-8.118;2023-07-13T12:11:34;25.30;67.30
74368;DHT22;64991;41.090;-8.118;2023-07-13T12:16:42;25.30;67.10
74368;DHT22;64991;41.090;-8.118;2023-07-13T12:21:48;25.20;67.10
74368;DHT22;64991;41.090;-8.118;2023-07-13T12:26:53;25.20;67.20
74368;DHT22;64991;41.090;-8.118;2023-07-13T12:31:58;25.30;67.00
74368;DHT22;64991;41.090;-8.118;2023-07-13T12:37:08;25.40;67.00
74368;DHT22;64991;41.090;-8.118;2023-07-13T12:42:19;25.40;67.30
74368;DHT22;64991;41.090;-8.118;2023-07-13T12:47:26;25.30;67.10
74368;DHT22;64991;41.090;-8.118;2023-07-13T12:52:32;25.40;66.80
74368;DHT22;64991;41.090;-8.118;2023-07-13T12:57:39;25.30;66.60
74368;DHT22;64991;41.090;-8.118;2023-07-13T13:02:43;25.40;66.80
74368;DHT22;64991;41.090;-8.118;2023-07-13T13:07:48;25.40;66.50
74368;DHT22;64991;41.090;-8.118;2023-07-13T13:12:52;25.40;66.40
74368;DHT22;64991;41.090;-8.118;2023-07-13T13:17:56;25.40;66.20
74368;DHT22;64991;41.090;-8.118;2023-07-13T13:23:02;25.50;65.30
74368;DHT22;64991;41.090;-8.118;2023-07-13T13:28:11;25.50;65.00
74368;DHT22;64991;41.090;-8.118;2023-07-13T13:33:19;25.50;64.80
74368;DHT22;64991;41.090;-8.118;2023-07-13T13:38:26;25.50;64.70
74368;DHT22;64991;41.090;-8.118;2023-07-13T13:43:31;25.50;64.40
74368;DHT22;64991;41.090;-8.118;2023-07-13T13:48:35;25.50;63.90
74368;DHT22;64991;41.090;-8.118;2023-07-13T13:53:44;25.50;63.50
74368;DHT22;64991;41.090;-8.118;2023-07-13T13:58:48;25.50;63.20
74368;DHT22;64991;41.090;-8.118;2023-07-13T14:03:52;25.50;63.30
74368;DHT22;64991;41.090;-8.118;2023-07-13T14:08:57;25.50;63.00
74368;DHT22;64991;41.090;-8.118;2023-07-13T14:14:01;25.60;62.90
74368;DHT22;64991;41.090;-8.118;2023-07-13T14:19:07;25.60;62.60
74368;DHT22;64991;41.090;-8.118;2023-07-13T14:24:14;25.60;62.10
74368;DHT22;64991;41.090;-8.118;2023-07-13T14:29:18;25.50;61.70
74368;DHT22;64991;41.090;-8.118;2023-07-13T14:34:25;25.50;61.50
74368;DHT22;64991;41.090;-8.118;2023-07-13T14:39:31;25.50;61.20
74368;DHT22;64991;41.090;-8.118;2023-07-13T14:44:35;25.50;60.90
74368;DHT22;64991;41.090;-8.118;2023-07-13T14:49:39;25.50;60.40
74368;DHT22;64991;41.090;-8.118;2023-07-13T14:54:45;25.50;60.50
74368;DHT22;64991;41.090;-8.118;2023-07-13T14:59:49;25.40;61.30
74368;DHT22;64991;41.090;-8.118;2023-07-13T15:04:53;25.50;62.00
74368;DHT22;64991;41.090;-8.118;2023-07-13T15:09:59;25.60;62.40
74368;DHT22;64991;41.090;-8.118;2023-07-13T15:15:03;25.60;63.10
74368;DHT22;64991;41.090;-8.118;2023-07-13T15:20:18;25.60;63.40
74368;DHT22;64991;41.090;-8.118;2023-07-13T15:25:26;25.70;63.80
74368;DHT22;64991;41.090;-8.118;2023-07-13T15:30:33;25.60;63.80
74368;DHT22;64991;41.090;-8.118;2023-07-13T15:35:42;25.60;64.40
74368;DHT22;64991;41.090;-8.118;2023-07-13T15:40:48;25.60;64.60
74368;DHT22;64991;41.090;-8.118;2023-07-13T15:45:53;25.60;65.40
74368;DHT22;64991;41.090;-8.118;2023-07-13T15:50:59;25.50;65.50
74368;DHT22;64991;41.090;-8.118;2023-07-13T15:56:06;25.60;65.50
74368;DHT22;64991;41.090;-8.118;2023-07-13T16:01:18;25.60;65.50
74368;DHT22;64991;41.090;-8.118;2023-07-13T16:06:25;25.60;65.40
74368;DHT22;64991;41.090;-8.118;2023-07-13T16:11:33;25.60;65.60
74368;DHT22;64991;41.090;-8.118;2023-07-13T16:16:38;25.60;65.50
74368;DHT22;64991;41.090;-8.118;2023-07-13T16:21:43;25.60;65.60
74368;DHT22;64991;41.090;-8.118;2023-07-13T16:26:50;25.50;65.90
74368;DHT22;64991;41.090;-8.118;2023-07-13T16:31:55;25.60;66.00
74368;DHT22;64991;41.090;-8.118;2023-07-13T16:37:05;25.60;66.00
74368;DHT22;64991;41.090;-8.118;2023-07-13T16:42:17;25.60;65.90
74368;DHT22;64991;41.090;-8.118;2023-07-13T16:47:22;25.60;66.30
74368;DHT22;64991;41.090;-8.118;2023-07-13T16:52:26;25.60;66.30
74368;DHT22;64991;41.090;-8.118;2023-07-13T16:57:32;25.60;66.50
74368;DHT22;64991;41.090;-8.118;2023-07-13T17:02:36;25.60;66.30
74368;DHT22;64991;41.090;-8.118;2023-07-13T17:07:41;25.60;66.10
74368;DHT22;64991;41.090;-8.118;2023-07-13T17:12:50;25.60;66.30
74368;DHT22;64991;41.090;-8.118;2023-07-13T17:17:54;25.60;66.30
74368;DHT22;64991;41.090;-8.118;2023-07-13T17:23:08;25.60;65.80
74368;DHT22;64991;41.090;-8.118;2023-07-13T17:28:19;25.50;66.20
74368;DHT22;64991;41.090;-8.118;2023-07-13T17:33:28;25.50;66.20
74368;DHT22;64991;41.090;-8.118;2023-07-13T17:38:35;25.60;66.00
74368;DHT22;64991;41.090;-8.118;2023-07-13T17:43:43;25.60;66.00
74368;DHT22;64991;41.090;-8.118;2023-07-13T17:48:49;25.60;65.70
74368;DHT22;64991;41.090;-8.118;2023-07-13T17:53:55;25.60;65.50
74368;DHT22;64991;41.090;-8.118;2023-07-13T17:59:01;25.60;65.60
74368;DHT22;64991;41.090;-8.118;2023-07-13T18:04:07;25.60;65.50
74368;DHT22;64991;41.090;-8.118;2023-07-13T18:09:15;25.60;65.40
74368;DHT22;64991;41.090;-8.118;2023-07-13T18:14:22;25.60;64.90
74368;DHT22;64991;41.090;-8.118;2023-07-13T18:19:29;25.60;64.90
74368;DHT22;64991;41.090;-8.118;2023-07-13T18:24:34;25.60;64.90
74368;DHT22;64991;41.090;-8.118;2023-07-13T18:29:40;25.60;64.90
74368;DHT22;64991;41.090;-8.118;2023-07-13T18:34:45;25.60;64.30
74368;DHT22;64991;41.090;-8.118;2023-07-13T18:39:49;25.60;64.00
74368;DHT22;64991;41.090;-8.118;2023-07-13T18:44:56;25.70;63.50
74368;DHT22;64991;41.090;-8.118;2023-07-13T18:50:18;25.60;63.60
74368;DHT22;64991;41.090;-8.118;2023-07-13T18:55:23;25.70;63.20
74368;DHT22;64991;41.090;-8.118;2023-07-13T19:00:29;25.70;63.50
74368;DHT22;64991;41.090;-8.118;2023-07-13T19:05:33;25.60;63.40
74368;DHT22;64991;41.090;-8.118;2023-07-13T19:10:57;25.70;63.50
74368;DHT22;64991;41.090;-8.118;2023-07-13T19:16:02;25.60;63.00
74368;DHT22;64991;41.090;-8.118;2023-07-13T19:21:07;25.60;62.30
74368;DHT22;64991;41.090;-8.118;2023-07-13T19:26:14;25.60;62.10
74368;DHT22;64991;41.090;-8.118;2023-07-13T19:31:23;25.50;61.80
74368;DHT22;64991;41.090;-8.118;2023-07-13T19:36:28;25.60;62.30
74368;DHT22;64991;41.090;-8.118;2023-07-13T19:41:34;25.70;62.40
74368;DHT22;64991;41.090;-8.118;2023-07-13T19:46:40;25.60;62.40
74368;DHT22;64991;41.090;-8.118;2023-07-13T19:51:44;25.70;62.30
74368;DHT22;64991;41.090;-8.118;2023-07-13T19:56:48;25.50;62.40
74368;DHT22;64991;41.090;-8.118;2023-07-13T20:01:54;25.60;62.80
74368;DHT22;64991;41.090;-8.118;2023-07-13T20:07:00;25.60;62.80
74368;DHT22;64991;41.090;-8.118;2023-07-13T20:12:09;25.60;63.20
74368;DHT22;64991;41.090;-8.118;2023-07-13T20:17:23;25.60;63.20
74368;DHT22;64991;41.090;-8.118;2023-07-13T20:22:31;25.50;63.30
74368;DHT22;64991;41.090;-8.118;2023-07-13T20:27:35;25.50;63.40
74368;DHT22;64991;41.090;-8.118;2023-07-13T20:32:41;25.50;63.30
74368;DHT22;64991;41.090;-8.118;2023-07-13T20:37:44;25.60;64.00
74368;DHT22;64991;41.090;-8.118;2023-07-13T20:42:52;25.50;64.20
74368;DHT22;64991;41.090;-8.118;2023-07-13T20:47:59;25.60;64.30
74368;DHT22;64991;41.090;-8.118;2023-07-13T20:53:16;25.60;64.50
74368;DHT22;64991;41.090;-8.118;2023-07-13T20:58:20;25.60;64.60
74368;DHT22;64991;41.090;-8.118;2023-07-13T21:03:26;25.50;64.30
74368;DHT22;64991;41.090;-8.118;2023-07-13T21:08:31;25.50;64.40
74368;DHT22;64991;41.090;-8.118;2023-07-13T21:13:34;25.50;64.60
74368;DHT22;64991;41.090;-8.118;2023-07-13T21:18:39;25.50;64.50
74368;DHT22;64991;41.090;-8.118;2023-07-13T21:23:45;25.60;64.50
74368;DHT22;64991;41.090;-8.118;2023-07-13T21:28:53;25.50;64.50
74368;DHT22;64991;41.090;-8.118;2023-07-13T21:33:59;25.50;64.40
74368;DHT22;64991;41.090;-8.118;2023-07-13T21:39:04;25.50;64.60
74368;DHT22;64991;41.090;-8.118;2023-07-13T21:44:14;25.60;64.90
74368;DHT22;64991;41.090;-8.118;2023-07-13T21:49:22;25.60;64.60
74368;DHT22;64991;41.090;-8.118;2023-07-13T21:54:26;25.60;64.70
74368;DHT22;64991;41.090;-8.118;2023-07-13T21:59:30;25.60;64.40
74368;DHT22;64991;41.090;-8.118;2023-07-13T22:04:35;25.50;64.40
74368;DHT22;64991;41.090;-8.118;2023-07-13T22:09:39;25.40;63.80
74368;DHT22;64991;41.090;-8.118;2023-07-13T22:14:43;25.40;63.90
74368;DHT22;64991;41.090;-8.118;2023-07-13T22:19:48;25.50;64.10
74368;DHT22;64991;41.090;-8.118;2023-07-13T22:24:53;25.40;64.00
74368;DHT22;64991;41.090;-8.118;2023-07-13T22:29:57;25.50;64.10
74368;DHT22;64991;41.090;-8.118;2023-07-13T22:35:02;25.40;64.60
74368;DHT22;64991;41.090;-8.118;2023-07-13T22:40:09;25.50;64.00
74368;DHT22;64991;41.090;-8.118;2023-07-13T22:45:15;25.40;63.80
74368;DHT22;64991;41.090;-8.118;2023-07-13T22:50:20;25.40;63.60
74368;DHT22;64991;41.090;-8.118;2023-07-13T22:55:24;25.40;63.40
74368;DHT22;64991;41.090;-8.118;2023-07-13T23:00:27;25.40;63.40
74368;DHT22;64991;41.090;-8.118;2023-07-13T23:05:33;25.40;63.20
74368;DHT22;64991;41.090;-8.118;2023-07-13T23:10:38;25.40;63.30
74368;DHT22;64991;41.090;-8.118;2023-07-13T23:15:42;25.40;63.10
74368;DHT22;64991;41.090;-8.118;2023-07-13T23:20:49;25.40;63.10
74368;DHT22;64991;41.090;-8.118;2023-07-13T23:25:53;25.30;63.40
74368;DHT22;64991;41.090;-8.118;2023-07-13T23:30:57;25.30;63.80
74368;DHT22;64991;41.090;-8.118;2023-07-13T23:36:04;25.40;64.00
74368;DHT22;64991;41.090;-8.118;2023-07-13T23:41:09;25.40;64.10
74368;DHT22;64991;41.090;-8.118;2023-07-13T23:46:19;25.40;64.20
74368;DHT22;64991;41.090;-8.118;2023-07-13T23:51:28;25.40;64.60
74368;DHT22;64991;41.090;-8.118;2023-07-13T23:56:32;25.40;64.40
